Lake Dawn — 3EXJ9 — position and weather

sailwx.info

Track history (hours):
 
Tides and Currents Weather Stations Pressure Air Temp Water Temp Dewpoint Dewpoint Depression Visibility Wind Speed Wind Dir Waves Ship Positions

Lake Dawn

Last reported at 2018-Mar-06 12:54 UTC. Time now 2018-Apr-20 05:11 UTC.
Position N 33°01' E 132°09'.
Warning: this ship's position is 44 days out of date.

Length 229 m; draft 8.3 m.

Type: Cargo ship. MMSI: 355196000.

Date/timePositionNaut miles runAvg speedWind from/ knotsBaromVisibWave heightAir tempDewpointWater temp
2018-Mar-06 12:54N 33°01' E 132°09'1213.3
2018-Mar-06 12:00N 33°12' E 132°03'5 9.9
2018-Mar-06 11:27N 33°16' E 131°60'511.3
2018-Mar-06 10:59N 33°22' E 131°57'613.2
2018-Mar-06 10:30N 33°26' E 132°02'714.1
2018-Mar-06 10:00N 33°31' E 132°08'914.9
2018-Mar-06 09:26N 33°37' E 132°16'715.4
2018-Mar-06 09:00N 33°41' E 132°22'1015.6
2018-Mar-06 08:23N 33°48' E 132°30'716.0
2018-Mar-06 07:58N 33°53' E 132°36'716.2
2018-Mar-06 07:30N 33°58' E 132°43'  
2018-Mar-02 20:43N 34°05' E 132°48'310.5
2018-Mar-02 20:24N 34°02' E 132°46'410.8
2018-Mar-02 20:00N 33°58' E 132°44'510.1
2018-Mar-02 19:30N 33°55' E 132°39'510.0
2018-Mar-02 19:00N 33°51' E 132°35'510.0
2018-Mar-02 18:30N 33°48' E 132°30'3510.5
2018-Mar-02 15:07N 33°23' E 132°00'110.4
2018-Mar-02 15:00N 33°22' E 132°00'  
Track history (hours):
 
Tides and Currents Weather Stations Pressure Air Temp Water Temp Dewpoint Dewpoint Depression Visibility Wind Speed Wind Dir Waves Ship Positions

Lake Dawn

Last reported at 2018-Mar-06 12:54 UTC. Time now 2018-Apr-20 05:11 UTC.
Position N 33°01' E 132°09'.
Warning: this ship's position is 44 days out of date.

Length 229 m; draft 8.3 m.

Type: Cargo ship. MMSI: 355196000.

Date/timePositionNaut miles runAvg speedWind from/ knotsBaromVisibWave heightAir tempDewpointWater temp
2018-Mar-06 12:54N 33°01' E 132°09'1213.3
2018-Mar-06 12:00N 33°12' E 132°03'5 9.9
2018-Mar-06 11:27N 33°16' E 131°60'511.3
2018-Mar-06 10:59N 33°22' E 131°57'613.2
2018-Mar-06 10:30N 33°26' E 132°02'714.1
2018-Mar-06 10:00N 33°31' E 132°08'914.9
2018-Mar-06 09:26N 33°37' E 132°16'715.4
2018-Mar-06 09:00N 33°41' E 132°22'1015.6
2018-Mar-06 08:23N 33°48' E 132°30'716.0
2018-Mar-06 07:58N 33°53' E 132°36'716.2
2018-Mar-06 07:30N 33°58' E 132°43'  
2018-Mar-02 20:43N 34°05' E 132°48'310.5
2018-Mar-02 20:24N 34°02' E 132°46'410.8
2018-Mar-02 20:00N 33°58' E 132°44'510.1
2018-Mar-02 19:30N 33°55' E 132°39'510.0
2018-Mar-02 19:00N 33°51' E 132°35'510.0
2018-Mar-02 18:30N 33°48' E 132°30'3510.5
2018-Mar-02 15:07N 33°23' E 132°00'110.4
2018-Mar-02 15:00N 33°22' E 132°00'  

Dump ship's entire track history